sensor_id;sensor_type;location;lat;lon;timestamp;temperature;humidity
2190;DHT22;1101;51.056;7.262;2023-07-31T00:01:02;15.90;99.40
2190;DHT22;1101;51.056;7.262;2023-07-31T00:03:30;15.90;99.50
2190;DHT22;1101;51.056;7.262;2023-07-31T00:05:58;15.90;99.60
2190;DHT22;1101;51.056;7.262;2023-07-31T00:08:26;15.90;99.60
2190;DHT22;1101;51.056;7.262;2023-07-31T00:10:53;15.90;99.70
2190;DHT22;1101;51.056;7.262;2023-07-31T00:13:23;15.90;99.60
2190;DHT22;1101;51.056;7.262;2023-07-31T00:15:50;15.90;99.70
2190;DHT22;1101;51.056;7.262;2023-07-31T00:18:18;15.90;99.70
2190;DHT22;1101;51.056;7.262;2023-07-31T00:20:46;15.90;99.70
2190;DHT22;1101;51.056;7.262;2023-07-31T00:23:14;15.90;99.80
2190;DHT22;1101;51.056;7.262;2023-07-31T00:25:42;15.90;99.80
2190;DHT22;1101;51.056;7.262;2023-07-31T00:28:10;16.00;99.90
2190;DHT22;1101;51.056;7.262;2023-07-31T00:30:39;16.00;99.90
2190;DHT22;1101;51.056;7.262;2023-07-31T00:33:07;16.00;99.90
2190;DHT22;1101;51.056;7.262;2023-07-31T00:35:35;16.00;99.90
2190;DHT22;1101;51.056;7.262;2023-07-31T00:38:03;16.00;99.90
2190;DHT22;1101;51.056;7.262;2023-07-31T00:40:34;16.00;99.90
2190;DHT22;1101;51.056;7.262;2023-07-31T00:43:02;16.00;99.90
2190;DHT22;1101;51.056;7.262;2023-07-31T00:45:31;16.00;99.90
2190;DHT22;1101;51.056;7.262;2023-07-31T00:48:01;16.00;99.90
2190;DHT22;1101;51.056;7.262;2023-07-31T00:50:29;16.00;99.90
2190;DHT22;1101;51.056;7.262;2023-07-31T00:52:57;15.90;99.90
2190;DHT22;1101;51.056;7.262;2023-07-31T00:55:25;15.90;99.90
2190;DHT22;1101;51.056;7.262;2023-07-31T00:57:53;15.90;99.90
2190;DHT22;1101;51.056;7.262;2023-07-31T01:00:22;15.90;99.90
2190;DHT22;1101;51.056;7.262;2023-07-31T01:02:51;15.90;99.90
2190;DHT22;1101;51.056;7.262;2023-07-31T01:05:25;15.90;99.90
2190;DHT22;1101;51.056;7.262;2023-07-31T01:08:03;15.90;99.90
2190;DHT22;1101;51.056;7.262;2023-07-31T01:10:37;15.90;99.90
2190;DHT22;1101;51.056;7.262;2023-07-31T01:13:07;15.90;99.90
2190;DHT22;1101;51.056;7.262;2023-07-31T01:15:36;16.00;99.90
2190;DHT22;1101;51.056;7.262;2023-07-31T01:18:04;15.90;99.90
2190;DHT22;1101;51.056;7.262;2023-07-31T01:20:33;16.00;99.90
2190;DHT22;1101;51.056;7.262;2023-07-31T01:23:27;16.00;99.90
2190;DHT22;1101;51.056;7.262;2023-07-31T01:26:03;15.90;99.90
2190;DHT22;1101;51.056;7.262;2023-07-31T01:28:38;16.00;99.90
2190;DHT22;1101;51.056;7.262;2023-07-31T01:31:10;16.00;99.90
2190;DHT22;1101;51.056;7.262;2023-07-31T01:33:39;16.00;99.90
2190;DHT22;1101;51.056;7.262;2023-07-31T01:36:07;16.00;99.90
2190;DHT22;1101;51.056;7.262;2023-07-31T01:38:35;16.00;99.90
2190;DHT22;1101;51.056;7.262;2023-07-31T01:41:06;15.90;99.90
2190;DHT22;1101;51.056;7.262;2023-07-31T01:43:33;15.90;99.90
2190;DHT22;1101;51.056;7.262;2023-07-31T01:46:01;16.00;99.90
2190;DHT22;1101;51.056;7.262;2023-07-31T01:48:29;15.90;99.90
2190;DHT22;1101;51.056;7.262;2023-07-31T01:51:02;16.00;99.90
2190;DHT22;1101;51.056;7.262;2023-07-31T01:53:31;15.90;99.90
2190;DHT22;1101;51.056;7.262;2023-07-31T01:55:59;15.90;99.90
2190;DHT22;1101;51.056;7.262;2023-07-31T01:58:28;15.90;99.90
2190;DHT22;1101;51.056;7.262;2023-07-31T02:00:56;15.90;99.90
2190;DHT22;1101;51.056;7.262;2023-07-31T02:03:24;15.90;99.90
2190;DHT22;1101;51.056;7.262;2023-07-31T02:05:54;15.90;99.90
2190;DHT22;1101;51.056;7.262;2023-07-31T02:08:23;15.90;99.90
2190;DHT22;1101;51.056;7.262;2023-07-31T02:10:51;15.90;99.90
2190;DHT22;1101;51.056;7.262;2023-07-31T02:13:19;15.90;99.90
2190;DHT22;1101;51.056;7.262;2023-07-31T02:15:48;15.90;99.90
2190;DHT22;1101;51.056;7.262;2023-07-31T02:18:17;15.90;99.90
2190;DHT22;1101;51.056;7.262;2023-07-31T02:20:49;15.90;99.90
2190;DHT22;1101;51.056;7.262;2023-07-31T02:23:17;15.90;99.90
2190;DHT22;1101;51.056;7.262;2023-07-31T02:25:45;15.90;99.90
2190;DHT22;1101;51.056;7.262;2023-07-31T02:28:13;15.90;99.90
2190;DHT22;1101;51.056;7.262;2023-07-31T02:30:44;15.90;99.90
2190;DHT22;1101;51.056;7.262;2023-07-31T02:33:15;15.90;99.90
2190;DHT22;1101;51.056;7.262;2023-07-31T02:35:43;15.90;99.90
2190;DHT22;1101;51.056;7.262;2023-07-31T02:38:10;15.90;99.90
2190;DHT22;1101;51.056;7.262;2023-07-31T02:40:39;15.90;99.90
2190;DHT22;1101;51.056;7.262;2023-07-31T02:43:07;15.90;99.90
2190;DHT22;1101;51.056;7.262;2023-07-31T02:45:35;15.90;99.90
2190;DHT22;1101;51.056;7.262;2023-07-31T02:48:03;15.90;99.90
2190;DHT22;1101;51.056;7.262;2023-07-31T02:50:33;15.90;99.90
2190;DHT22;1101;51.056;7.262;2023-07-31T02:53:00;15.90;99.90
2190;DHT22;1101;51.056;7.262;2023-07-31T02:55:28;15.90;99.90
2190;DHT22;1101;51.056;7.262;2023-07-31T02:57:56;15.90;99.90
2190;DHT22;1101;51.056;7.262;2023-07-31T03:00:24;15.90;99.90
2190;DHT22;1101;51.056;7.262;2023-07-31T03:02:52;15.90;99.90
2190;DHT22;1101;51.056;7.262;2023-07-31T03:05:20;16.00;99.90
2190;DHT22;1101;51.056;7.262;2023-07-31T03:07:49;16.00;99.90
2190;DHT22;1101;51.056;7.262;2023-07-31T03:10:17;16.00;99.90
2190;DHT22;1101;51.056;7.262;2023-07-31T03:12:47;16.00;99.90
2190;DHT22;1101;51.056;7.262;2023-07-31T03:15:15;16.00;99.90
2190;DHT22;1101;51.056;7.262;2023-07-31T03:17:43;16.00;99.90
2190;DHT22;1101;51.056;7.262;2023-07-31T03:20:11;16.00;99.90
2190;DHT22;1101;51.056;7.262;2023-07-31T03:22:39;16.00;99.90
2190;DHT22;1101;51.056;7.262;2023-07-31T03:25:09;16.00;99.90
2190;DHT22;1101;51.056;7.262;2023-07-31T03:27:37;16.00;99.90
2190;DHT22;1101;51.056;7.262;2023-07-31T03:30:06;16.00;99.90
2190;DHT22;1101;51.056;7.262;2023-07-31T03:32:34;16.00;99.90
2190;DHT22;1101;51.056;7.262;2023-07-31T03:35:02;16.00;99.90
2190;DHT22;1101;51.056;7.262;2023-07-31T03:37:32;16.00;99.90
2190;DHT22;1101;51.056;7.262;2023-07-31T03:39:59;16.00;99.90
2190;DHT22;1101;51.056;7.262;2023-07-31T03:42:29;16.00;99.90
2190;DHT22;1101;51.056;7.262;2023-07-31T03:44:56;16.00;99.90
2190;DHT22;1101;51.056;7.262;2023-07-31T03:47:24;16.00;99.90
2190;DHT22;1101;51.056;7.262;2023-07-31T03:49:52;16.00;99.90
2190;DHT22;1101;51.056;7.262;2023-07-31T03:52:20;16.00;99.90
2190;DHT22;1101;51.056;7.262;2023-07-31T03:54:48;16.00;99.90
2190;DHT22;1101;51.056;7.262;2023-07-31T03:57:15;16.00;99.90
2190;DHT22;1101;51.056;7.262;2023-07-31T03:59:45;16.00;99.90
2190;DHT22;1101;51.056;7.262;2023-07-31T04:02:12;16.00;99.90
2190;DHT22;1101;51.056;7.262;2023-07-31T04:04:41;16.00;99.90
2190;DHT22;1101;51.056;7.262;2023-07-31T04:07:08;16.00;99.90
2190;DHT22;1101;51.056;7.262;2023-07-31T04:09:36;16.10;99.90
2190;DHT22;1101;51.056;7.262;2023-07-31T04:12:04;16.00;99.90
2190;DHT22;1101;51.056;7.262;2023-07-31T04:14:32;16.10;99.90
2190;DHT22;1101;51.056;7.262;2023-07-31T04:17:01;16.00;99.90
2190;DHT22;1101;51.056;7.262;2023-07-31T04:19:29;16.10;99.90
2190;DHT22;1101;51.056;7.262;2023-07-31T04:21:57;16.10;99.90
2190;DHT22;1101;51.056;7.262;2023-07-31T04:24:25;16.10;99.90
2190;DHT22;1101;51.056;7.262;2023-07-31T04:26:53;16.10;99.90
2190;DHT22;1101;51.056;7.262;2023-07-31T04:29:21;16.10;99.90
2190;DHT22;1101;51.056;7.262;2023-07-31T04:31:48;16.10;99.90
2190;DHT22;1101;51.056;7.262;2023-07-31T04:34:17;16.10;99.90
2190;DHT22;1101;51.056;7.262;2023-07-31T04:36:45;16.10;99.90
2190;DHT22;1101;51.056;7.262;2023-07-31T04:39:13;16.10;99.90
2190;DHT22;1101;51.056;7.262;2023-07-31T04:41:41;16.10;99.90
2190;DHT22;1101;51.056;7.262;2023-07-31T04:44:09;16.10;99.90
2190;DHT22;1101;51.056;7.262;2023-07-31T04:46:37;16.10;99.90
2190;DHT22;1101;51.056;7.262;2023-07-31T04:49:06;16.10;99.90
2190;DHT22;1101;51.056;7.262;2023-07-31T04:51:35;16.10;99.90
2190;DHT22;1101;51.056;7.262;2023-07-31T04:54:03;16.10;99.90
2190;DHT22;1101;51.056;7.262;2023-07-31T04:56:30;16.10;99.90
2190;DHT22;1101;51.056;7.262;2023-07-31T04:58:58;16.10;99.90
2190;DHT22;1101;51.056;7.262;2023-07-31T05:01:26;16.10;99.90
2190;DHT22;1101;51.056;7.262;2023-07-31T05:03:54;16.10;99.90
2190;DHT22;1101;51.056;7.262;2023-07-31T05:06:22;16.20;99.90
2190;DHT22;1101;51.056;7.262;2023-07-31T05:08:51;16.10;99.90
2190;DHT22;1101;51.056;7.262;2023-07-31T05:11:18;16.10;99.90
2190;DHT22;1101;51.056;7.262;2023-07-31T05:13:46;16.10;99.90
2190;DHT22;1101;51.056;7.262;2023-07-31T05:16:14;16.10;99.90
2190;DHT22;1101;51.056;7.262;2023-07-31T05:18:42;16.10;99.90
2190;DHT22;1101;51.056;7.262;2023-07-31T05:21:10;16.10;99.90
2190;DHT22;1101;51.056;7.262;2023-07-31T05:23:37;16.10;99.90
2190;DHT22;1101;51.056;7.262;2023-07-31T05:26:07;16.10;99.90
2190;DHT22;1101;51.056;7.262;2023-07-31T05:28:36;16.10;99.90
2190;DHT22;1101;51.056;7.262;2023-07-31T05:31:05;16.20;99.90
2190;DHT22;1101;51.056;7.262;2023-07-31T05:33:33;16.20;99.90
2190;DHT22;1101;51.056;7.262;2023-07-31T05:36:01;16.20;99.90
2190;DHT22;1101;51.056;7.262;2023-07-31T05:38:29;16.20;99.90
2190;DHT22;1101;51.056;7.262;2023-07-31T05:40:57;16.30;99.90
2190;DHT22;1101;51.056;7.262;2023-07-31T05:43:26;16.30;99.90
2190;DHT22;1101;51.056;7.262;2023-07-31T05:45:54;16.30;99.90
2190;DHT22;1101;51.056;7.262;2023-07-31T05:48:22;16.40;99.90
2190;DHT22;1101;51.056;7.262;2023-07-31T05:50:50;16.40;99.90
2190;DHT22;1101;51.056;7.262;2023-07-31T05:53:18;16.40;99.90
2190;DHT22;1101;51.056;7.262;2023-07-31T05:55:45;16.50;99.90
2190;DHT22;1101;51.056;7.262;2023-07-31T05:58:13;16.50;99.90
2190;DHT22;1101;51.056;7.262;2023-07-31T06:00:42;16.50;99.90
2190;DHT22;1101;51.056;7.262;2023-07-31T06:03:10;16.50;99.90
2190;DHT22;1101;51.056;7.262;2023-07-31T06:05:38;16.60;99.90
2190;DHT22;1101;51.056;7.262;2023-07-31T06:08:06;16.60;99.90
2190;DHT22;1101;51.056;7.262;2023-07-31T06:10:34;16.60;99.90
2190;DHT22;1101;51.056;7.262;2023-07-31T06:13:02;16.70;99.90
2190;DHT22;1101;51.056;7.262;2023-07-31T06:15:30;16.70;99.90
2190;DHT22;1101;51.056;7.262;2023-07-31T06:17:59;16.70;99.90
2190;DHT22;1101;51.056;7.262;2023-07-31T06:20:29;16.70;99.90
2190;DHT22;1101;51.056;7.262;2023-07-31T06:22:56;16.70;99.90
2190;DHT22;1101;51.056;7.262;2023-07-31T06:25:24;16.70;99.90
2190;DHT22;1101;51.056;7.262;2023-07-31T06:27:52;16.70;99.90
2190;DHT22;1101;51.056;7.262;2023-07-31T06:30:20;16.70;99.90
2190;DHT22;1101;51.056;7.262;2023-07-31T06:32:48;16.60;99.90
2190;DHT22;1101;51.056;7.262;2023-07-31T06:35:17;16.60;99.90
2190;DHT22;1101;51.056;7.262;2023-07-31T06:37:45;16.60;99.90
2190;DHT22;1101;51.056;7.262;2023-07-31T06:40:13;16.60;99.90
2190;DHT22;1101;51.056;7.262;2023-07-31T06:42:41;16.60;99.90
2190;DHT22;1101;51.056;7.262;2023-07-31T06:45:09;16.60;99.90
2190;DHT22;1101;51.056;7.262;2023-07-31T06:47:38;16.60;99.90
2190;DHT22;1101;51.056;7.262;2023-07-31T06:50:06;16.60;99.90
2190;DHT22;1101;51.056;7.262;2023-07-31T06:52:35;16.60;99.90
2190;DHT22;1101;51.056;7.262;2023-07-31T06:55:16;16.60;99.90
2190;DHT22;1101;51.056;7.262;2023-07-31T06:57:44;16.60;99.90
2190;DHT22;1101;51.056;7.262;2023-07-31T07:00:12;16.60;99.90
2190;DHT22;1101;51.056;7.262;2023-07-31T07:02:41;16.70;99.90
2190;DHT22;1101;51.056;7.262;2023-07-31T07:05:09;16.80;99.90
2190;DHT22;1101;51.056;7.262;2023-07-31T07:07:38;16.80;99.90
2190;DHT22;1101;51.056;7.262;2023-07-31T07:10:07;16.80;99.90
2190;DHT22;1101;51.056;7.262;2023-07-31T07:12:35;16.90;99.90
2190;DHT22;1101;51.056;7.262;2023-07-31T07:15:05;16.90;99.90
2190;DHT22;1101;51.056;7.262;2023-07-31T07:17:32;17.00;99.90
2190;DHT22;1101;51.056;7.262;2023-07-31T07:20:00;17.00;99.90
2190;DHT22;1101;51.056;7.262;2023-07-31T07:22:31;17.00;99.90
2190;DHT22;1101;51.056;7.262;2023-07-31T07:25:01;17.10;99.90
2190;DHT22;1101;51.056;7.262;2023-07-31T07:27:29;17.10;99.90
2190;DHT22;1101;51.056;7.262;2023-07-31T07:29:56;17.10;99.90
2190;DHT22;1101;51.056;7.262;2023-07-31T07:32:24;17.10;99.90
2190;DHT22;1101;51.056;7.262;2023-07-31T07:34:55;17.20;99.90
2190;DHT22;1101;51.056;7.262;2023-07-31T07:37:23;17.20;99.90
2190;DHT22;1101;51.056;7.262;2023-07-31T07:39:52;17.10;99.90
2190;DHT22;1101;51.056;7.262;2023-07-31T07:42:21;17.20;99.90
2190;DHT22;1101;51.056;7.262;2023-07-31T07:44:49;17.20;99.90
2190;DHT22;1101;51.056;7.262;2023-07-31T07:47:17;17.20;99.90
2190;DHT22;1101;51.056;7.262;2023-07-31T07:49:44;17.20;99.90
2190;DHT22;1101;51.056;7.262;2023-07-31T07:52:19;17.20;99.90
2190;DHT22;1101;51.056;7.262;2023-07-31T07:54:47;17.10;99.90
2190;DHT22;1101;51.056;7.262;2023-07-31T07:57:14;17.10;99.90
2190;DHT22;1101;51.056;7.262;2023-07-31T07:59:44;17.10;99.90
2190;DHT22;1101;51.056;7.262;2023-07-31T08:02:12;17.10;99.90
2190;DHT22;1101;51.056;7.262;2023-07-31T08:04:40;17.10;99.90
2190;DHT22;1101;51.056;7.262;2023-07-31T08:07:07;17.10;99.90
2190;DHT22;1101;51.056;7.262;2023-07-31T08:09:35;17.10;99.90
2190;DHT22;1101;51.056;7.262;2023-07-31T08:12:05;17.10;99.90
2190;DHT22;1101;51.056;7.262;2023-07-31T08:14:33;17.10;99.90
2190;DHT22;1101;51.056;7.262;2023-07-31T08:17:03;17.10;99.90
2190;DHT22;1101;51.056;7.262;2023-07-31T08:19:31;17.10;99.90
2190;DHT22;1101;51.056;7.262;2023-07-31T08:21:59;17.00;99.90
2190;DHT22;1101;51.056;7.262;2023-07-31T08:24:27;17.00;99.90
2190;DHT22;1101;51.056;7.262;2023-07-31T08:26:55;17.10;99.90
2190;DHT22;1101;51.056;7.262;2023-07-31T08:29:22;17.00;99.90
2190;DHT22;1101;51.056;7.262;2023-07-31T08:31:50;17.10;99.90
2190;DHT22;1101;51.056;7.262;2023-07-31T08:34:19;17.00;99.90
2190;DHT22;1101;51.056;7.262;2023-07-31T08:36:47;17.00;99.90
2190;DHT22;1101;51.056;7.262;2023-07-31T08:39:15;17.00;99.90
2190;DHT22;1101;51.056;7.262;2023-07-31T08:41:44;16.90;99.90
2190;DHT22;1101;51.056;7.262;2023-07-31T08:44:12;16.90;99.90
2190;DHT22;1101;51.056;7.262;2023-07-31T08:46:41;16.90;99.90
2190;DHT22;1101;51.056;7.262;2023-07-31T08:49:10;16.90;99.90
2190;DHT22;1101;51.056;7.262;2023-07-31T08:51:40;16.80;99.90
2190;DHT22;1101;51.056;7.262;2023-07-31T08:54:09;16.80;99.90
2190;DHT22;1101;51.056;7.262;2023-07-31T08:56:37;16.80;99.90
2190;DHT22;1101;51.056;7.262;2023-07-31T08:59:05;16.80;99.90
2190;DHT22;1101;51.056;7.262;2023-07-31T09:01:37;16.80;99.90
2190;DHT22;1101;51.056;7.262;2023-07-31T09:04:09;16.90;99.90
2190;DHT22;1101;51.056;7.262;2023-07-31T09:06:40;16.90;99.90
2190;DHT22;1101;51.056;7.262;2023-07-31T09:09:08;17.00;99.90
2190;DHT22;1101;51.056;7.262;2023-07-31T09:11:36;16.90;99.90
2190;DHT22;1101;51.056;7.262;2023-07-31T09:14:05;17.00;99.90
2190;DHT22;1101;51.056;7.262;2023-07-31T09:16:35;17.00;99.90
2190;DHT22;1101;51.056;7.262;2023-07-31T09:19:04;17.00;99.90
2190;DHT22;1101;51.056;7.262;2023-07-31T09:21:32;17.10;99.90
2190;DHT22;1101;51.056;7.262;2023-07-31T09:24:01;17.10;99.90
2190;DHT22;1101;51.056;7.262;2023-07-31T09:26:30;17.10;99.90
2190;DHT22;1101;51.056;7.262;2023-07-31T09:28:58;17.20;99.90
2190;DHT22;1101;51.056;7.262;2023-07-31T09:31:38;17.20;99.90
2190;DHT22;1101;51.056;7.262;2023-07-31T09:34:06;17.20;99.90
2190;DHT22;1101;51.056;7.262;2023-07-31T09:36:40;17.20;99.90
2190;DHT22;1101;51.056;7.262;2023-07-31T09:39:10;17.30;99.90
2190;DHT22;1101;51.056;7.262;2023-07-31T09:41:39;17.30;99.90
2190;DHT22;1101;51.056;7.262;2023-07-31T09:44:07;17.30;99.90
2190;DHT22;1101;51.056;7.262;2023-07-31T09:46:35;17.30;99.90
2190;DHT22;1101;51.056;7.262;2023-07-31T09:49:06;17.30;99.90
2190;DHT22;1101;51.056;7.262;2023-07-31T09:51:36;17.30;99.90
2190;DHT22;1101;51.056;7.262;2023-07-31T09:54:12;17.30;99.90
2190;DHT22;1101;51.056;7.262;2023-07-31T09:56:42;17.30;99.90
2190;DHT22;1101;51.056;7.262;2023-07-31T09:59:12;17.30;99.90
2190;DHT22;1101;51.056;7.262;2023-07-31T10:01:41;17.20;99.90
2190;DHT22;1101;51.056;7.262;2023-07-31T10:04:10;17.30;99.90
2190;DHT22;1101;51.056;7.262;2023-07-31T10:06:38;17.30;99.90
2190;DHT22;1101;51.056;7.262;2023-07-31T10:09:12;17.30;99.90
2190;DHT22;1101;51.056;7.262;2023-07-31T10:11:47;17.30;99.90
2190;DHT22;1101;51.056;7.262;2023-07-31T10:14:18;17.30;99.90
2190;DHT22;1101;51.056;7.262;2023-07-31T10:16:47;17.30;99.90
2190;DHT22;1101;51.056;7.262;2023-07-31T10:19:15;17.30;99.90
2190;DHT22;1101;51.056;7.262;2023-07-31T10:21:44;17.40;99.90
2190;DHT22;1101;51.056;7.262;2023-07-31T10:24:15;17.40;99.90
2190;DHT22;1101;51.056;7.262;2023-07-31T10:26:45;17.50;99.90
2190;DHT22;1101;51.056;7.262;2023-07-31T10:29:15;17.60;99.90
2190;DHT22;1101;51.056;7.262;2023-07-31T10:31:44;17.60;99.90
2190;DHT22;1101;51.056;7.262;2023-07-31T10:34:13;17.70;99.90
2190;DHT22;1101;51.056;7.262;2023-07-31T10:36:41;17.70;99.90
2190;DHT22;1101;51.056;7.262;2023-07-31T10:39:34;17.70;99.90
2190;DHT22;1101;51.056;7.262;2023-07-31T10:42:10;17.80;99.90
2190;DHT22;1101;51.056;7.262;2023-07-31T10:44:38;17.80;99.90
2190;DHT22;1101;51.056;7.262;2023-07-31T10:47:14;17.90;99.90
2190;DHT22;1101;51.056;7.262;2023-07-31T10:49:45;18.00;99.90
2190;DHT22;1101;51.056;7.262;2023-07-31T10:52:13;18.00;99.90
2190;DHT22;1101;51.056;7.262;2023-07-31T10:54:42;18.00;99.90
2190;DHT22;1101;51.056;7.262;2023-07-31T10:57:19;18.10;99.90
2190;DHT22;1101;51.056;7.262;2023-07-31T10:59:48;18.10;99.90
2190;DHT22;1101;51.056;7.262;2023-07-31T11:02:25;18.10;99.90
2190;DHT22;1101;51.056;7.262;2023-07-31T11:05:06;18.10;99.90
2190;DHT22;1101;51.056;7.262;2023-07-31T11:07:55;18.20;99.90
2190;DHT22;1101;51.056;7.262;2023-07-31T11:10:24;18.10;99.90
2190;DHT22;1101;51.056;7.262;2023-07-31T11:12:53;18.20;99.90
2190;DHT22;1101;51.056;7.262;2023-07-31T11:15:20;18.10;99.90
2190;DHT22;1101;51.056;7.262;2023-07-31T11:17:48;18.00;99.90
2190;DHT22;1101;51.056;7.262;2023-07-31T11:20:16;18.00;99.90
2190;DHT22;1101;51.056;7.262;2023-07-31T11:22:44;18.00;99.90
2190;DHT22;1101;51.056;7.262;2023-07-31T11:25:12;18.00;99.90
2190;DHT22;1101;51.056;7.262;2023-07-31T11:27:43;18.00;99.90
2190;DHT22;1101;51.056;7.262;2023-07-31T11:30:12;18.00;99.90
2190;DHT22;1101;51.056;7.262;2023-07-31T11:32:40;18.00;99.90
2190;DHT22;1101;51.056;7.262;2023-07-31T11:35:12;18.00;99.90
2190;DHT22;1101;51.056;7.262;2023-07-31T11:37:40;18.00;99.90
2190;DHT22;1101;51.056;7.262;2023-07-31T11:40:09;17.90;99.90
2190;DHT22;1101;51.056;7.262;2023-07-31T11:42:37;17.90;99.90
2190;DHT22;1101;51.056;7.262;2023-07-31T11:45:08;18.00;99.90
2190;DHT22;1101;51.056;7.262;2023-07-31T11:47:37;18.00;99.90
2190;DHT22;1101;51.056;7.262;2023-07-31T11:50:09;17.90;99.90
2190;DHT22;1101;51.056;7.262;2023-07-31T11:52:39;18.00;99.90
2190;DHT22;1101;51.056;7.262;2023-07-31T11:55:09;18.00;99.90
2190;DHT22;1101;51.056;7.262;2023-07-31T11:57:39;18.00;99.90
2190;DHT22;1101;51.056;7.262;2023-07-31T12:00:10;18.00;99.90
2190;DHT22;1101;51.056;7.262;2023-07-31T12:02:40;18.00;99.90
2190;DHT22;1101;51.056;7.262;2023-07-31T12:05:10;18.00;99.90
2190;DHT22;1101;51.056;7.262;2023-07-31T12:07:46;18.00;99.90
2190;DHT22;1101;51.056;7.262;2023-07-31T12:10:28;18.00;99.90
2190;DHT22;1101;51.056;7.262;2023-07-31T12:12:58;18.10;99.90
2190;DHT22;1101;51.056;7.262;2023-07-31T12:15:33;18.10;99.90
2190;DHT22;1101;51.056;7.262;2023-07-31T12:18:04;18.10;99.90
2190;DHT22;1101;51.056;7.262;2023-07-31T12:20:32;18.10;99.90
2190;DHT22;1101;51.056;7.262;2023-07-31T12:23:01;18.00;99.90
2190;DHT22;1101;51.056;7.262;2023-07-31T12:25:33;18.00;99.90
2190;DHT22;1101;51.056;7.262;2023-07-31T12:28:06;18.00;99.90
2190;DHT22;1101;51.056;7.262;2023-07-31T12:30:40;18.00;99.90
2190;DHT22;1101;51.056;7.262;2023-07-31T12:33:13;17.90;99.90
2190;DHT22;1101;51.056;7.262;2023-07-31T12:35:44;18.00;99.90
2190;DHT22;1101;51.056;7.262;2023-07-31T12:38:12;18.00;99.90
2190;DHT22;1101;51.056;7.262;2023-07-31T12:40:41;18.00;99.90
2190;DHT22;1101;51.056;7.262;2023-07-31T12:43:09;18.00;99.90
2190;DHT22;1101;51.056;7.262;2023-07-31T12:45:37;18.00;99.90
2190;DHT22;1101;51.056;7.262;2023-07-31T12:48:06;18.00;99.90
2190;DHT22;1101;51.056;7.262;2023-07-31T12:50:34;18.00;99.90
2190;DHT22;1101;51.056;7.262;2023-07-31T12:53:03;18.00;99.90
2190;DHT22;1101;51.056;7.262;2023-07-31T12:55:31;18.10;99.90
2190;DHT22;1101;51.056;7.262;2023-07-31T12:58:01;18.10;99.90
2190;DHT22;1101;51.056;7.262;2023-07-31T13:00:28;18.10;99.90
2190;DHT22;1101;51.056;7.262;2023-07-31T13:02:56;18.20;99.90
2190;DHT22;1101;51.056;7.262;2023-07-31T13:05:26;18.20;99.90
2190;DHT22;1101;51.056;7.262;2023-07-31T13:07:54;18.20;99.90
2190;DHT22;1101;51.056;7.262;2023-07-31T13:10:22;18.20;99.90
2190;DHT22;1101;51.056;7.262;2023-07-31T13:12:50;18.30;99.90
2190;DHT22;1101;51.056;7.262;2023-07-31T13:15:18;18.30;99.90
2190;DHT22;1101;51.056;7.262;2023-07-31T13:17:46;18.40;99.90
2190;DHT22;1101;51.056;7.262;2023-07-31T13:20:14;18.40;99.90
2190;DHT22;1101;51.056;7.262;2023-07-31T13:22:43;18.40;99.90
2190;DHT22;1101;51.056;7.262;2023-07-31T13:25:13;18.40;99.90
2190;DHT22;1101;51.056;7.262;2023-07-31T13:27:40;18.40;99.90
2190;DHT22;1101;51.056;7.262;2023-07-31T13:30:08;18.40;99.90
2190;DHT22;1101;51.056;7.262;2023-07-31T13:32:36;18.50;99.90
2190;DHT22;1101;51.056;7.262;2023-07-31T13:35:06;18.50;99.90
2190;DHT22;1101;51.056;7.262;2023-07-31T13:37:34;18.50;99.90
2190;DHT22;1101;51.056;7.262;2023-07-31T13:40:05;18.50;99.90
2190;DHT22;1101;51.056;7.262;2023-07-31T13:42:33;18.50;99.90
2190;DHT22;1101;51.056;7.262;2023-07-31T13:45:01;18.50;99.90
2190;DHT22;1101;51.056;7.262;2023-07-31T13:47:33;18.50;99.90
2190;DHT22;1101;51.056;7.262;2023-07-31T13:50:01;18.50;99.90
2190;DHT22;1101;51.056;7.262;2023-07-31T13:52:29;18.50;99.90
2190;DHT22;1101;51.056;7.262;2023-07-31T13:54:57;18.50;99.90
2190;DHT22;1101;51.056;7.262;2023-07-31T13:57:26;18.50;99.90
2190;DHT22;1101;51.056;7.262;2023-07-31T13:59:55;18.50;99.90
2190;DHT22;1101;51.056;7.262;2023-07-31T14:02:22;18.50;99.90
2190;DHT22;1101;51.056;7.262;2023-07-31T14:04:50;18.60;99.90
2190;DHT22;1101;51.056;7.262;2023-07-31T14:07:18;18.60;99.90
2190;DHT22;1101;51.056;7.262;2023-07-31T14:09:46;18.70;99.90
2190;DHT22;1101;51.056;7.262;2023-07-31T14:12:14;18.80;99.90
2190;DHT22;1101;51.056;7.262;2023-07-31T14:15:03;18.90;99.90
2190;DHT22;1101;51.056;7.262;2023-07-31T14:17:31;18.90;99.90
2190;DHT22;1101;51.056;7.262;2023-07-31T14:19:59;19.00;99.90
2190;DHT22;1101;51.056;7.262;2023-07-31T14:22:28;19.00;99.90
2190;DHT22;1101;51.056;7.262;2023-07-31T14:24:56;19.00;99.90
2190;DHT22;1101;51.056;7.262;2023-07-31T14:27:24;19.00;99.90
2190;DHT22;1101;51.056;7.262;2023-07-31T14:29:52;19.00;99.90
2190;DHT22;1101;51.056;7.262;2023-07-31T14:32:21;19.00;99.90
2190;DHT22;1101;51.056;7.262;2023-07-31T14:34:51;19.00;99.90
2190;DHT22;1101;51.056;7.262;2023-07-31T14:37:21;19.00;99.90
2190;DHT22;1101;51.056;7.262;2023-07-31T14:39:49;19.00;99.90
2190;DHT22;1101;51.056;7.262;2023-07-31T14:42:17;19.00;99.90
2190;DHT22;1101;51.056;7.262;2023-07-31T14:44:45;19.00;99.90
2190;DHT22;1101;51.056;7.262;2023-07-31T14:47:14;19.00;99.90
2190;DHT22;1101;51.056;7.262;2023-07-31T14:49:43;18.90;99.90
2190;DHT22;1101;51.056;7.262;2023-07-31T14:52:11;18.90;99.90
2190;DHT22;1101;51.056;7.262;2023-07-31T14:54:39;18.90;99.90
2190;DHT22;1101;51.056;7.262;2023-07-31T14:57:08;18.80;99.90
2190;DHT22;1101;51.056;7.262;2023-07-31T14:59:36;18.80;99.90
2190;DHT22;1101;51.056;7.262;2023-07-31T15:02:04;18.80;99.90
2190;DHT22;1101;51.056;7.262;2023-07-31T15:04:32;18.80;99.90
2190;DHT22;1101;51.056;7.262;2023-07-31T15:07:02;18.80;99.90
2190;DHT22;1101;51.056;7.262;2023-07-31T15:09:29;18.80;99.90
2190;DHT22;1101;51.056;7.262;2023-07-31T15:11:57;18.80;99.90
2190;DHT22;1101;51.056;7.262;2023-07-31T15:14:25;18.80;99.90
2190;DHT22;1101;51.056;7.262;2023-07-31T15:16:55;18.70;99.90
2190;DHT22;1101;51.056;7.262;2023-07-31T15:19:22;18.70;99.90
2190;DHT22;1101;51.056;7.262;2023-07-31T15:21:50;18.80;99.90
2190;DHT22;1101;51.056;7.262;2023-07-31T15:24:20;18.80;99.90
2190;DHT22;1101;51.056;7.262;2023-07-31T15:26:47;18.70;99.90
2190;DHT22;1101;51.056;7.262;2023-07-31T15:29:15;18.70;99.90
2190;DHT22;1101;51.056;7.262;2023-07-31T15:31:46;18.80;99.90
2190;DHT22;1101;51.056;7.262;2023-07-31T15:34:15;18.70;99.90
2190;DHT22;1101;51.056;7.262;2023-07-31T15:36:43;18.80;99.90
2190;DHT22;1101;51.056;7.262;2023-07-31T15:39:11;18.70;99.90
2190;DHT22;1101;51.056;7.262;2023-07-31T15:41:40;18.70;99.90
2190;DHT22;1101;51.056;7.262;2023-07-31T15:44:08;18.70;99.90
2190;DHT22;1101;51.056;7.262;2023-07-31T15:46:36;18.70;99.90
2190;DHT22;1101;51.056;7.262;2023-07-31T15:49:04;18.60;99.90
2190;DHT22;1101;51.056;7.262;2023-07-31T15:51:35;18.60;99.90
2190;DHT22;1101;51.056;7.262;2023-07-31T15:54:03;18.60;99.90
2190;DHT22;1101;51.056;7.262;2023-07-31T15:56:30;18.60;99.90
2190;DHT22;1101;51.056;7.262;2023-07-31T15:59:00;18.50;99.90
2190;DHT22;1101;51.056;7.262;2023-07-31T16:01:28;18.50;99.90
2190;DHT22;1101;51.056;7.262;2023-07-31T16:03:56;18.50;99.90
2190;DHT22;1101;51.056;7.262;2023-07-31T16:06:24;18.50;99.90
2190;DHT22;1101;51.056;7.262;2023-07-31T16:08:51;18.50;99.90
2190;DHT22;1101;51.056;7.262;2023-07-31T16:11:21;18.50;99.90
2190;DHT22;1101;51.056;7.262;2023-07-31T16:13:48;18.50;99.90